This is the latest recevied weather packets stored in our database for station/object SQ2WB-13. If no packets are shown the sender has not sent any weather packets the latest 1 day(s).
| Time | Temp. | Humidity | Pressure | Rain* | Wind** | Luminosity | Snow |
|---|---|---|---|---|---|---|---|
| 1777990501 | 20.56° C | 62% | 998.9 hPa | 0 mm | 1.79 m/s, 17° | - | - |
| 1777989601 | 20.56° C | 62% | 998.9 hPa | 0 mm | 2.24 m/s, 27° | - | - |
| 1777988701 | 20.56° C | 61% | 999.3 hPa | 0 mm | 1.34 m/s, 53° | - | - |
| 1777987802 | 21.67° C | 60% | 998.9 hPa | 0 mm | 1.79 m/s, 30° | - | - |
| 1777986902 | 20.56° C | 64% | 999.3 hPa | 0 mm | 1.79 m/s, 69° | - | - |
| 1777986001 | 20° C | 68% | 999.6 hPa | 0 mm | 1.34 m/s, 54° | - | - |
| 1777985101 | 20° C | 68% | 999.6 hPa | 0 mm | 0.89 m/s, 87° | - | - |
| 1777984201 | 20° C | 68% | 1000 hPa | 0 mm | 1.79 m/s, 78° | - | - |
| 1777983302 | 20° C | 69% | 1000 hPa | 0 mm | 0.89 m/s, 75° | - | - |
| 1777982402 | 20° C | 68% | 1000 hPa | 0 mm | 1.34 m/s, 69° | - | - |
| 1777981501 | 20° C | 67% | 1000 hPa | 0 mm | 0.89 m/s, 85° | - | - |
| 1777980602 | 20.56° C | 68% | 1000 hPa | 0 mm | 1.34 m/s, 332° | - | - |
| 1777979702 | 20° C | 68% | 1000.3 hPa | 0 mm | 3.13 m/s, 19° | - | - |
| 1777978801 | 20° C | 69% | 1000.3 hPa | 0 mm | 0.89 m/s, 108° | - | - |
| 1777977902 | 18.89° C | 70% | 1000.3 hPa | 0 mm | 0.45 m/s, 99° | - | - |
| 1777977002 | 18.89° C | 72% | 1000.3 hPa | 0 mm | 0 m/s | - | - |
| 1777976101 | 18.89° C | 72% | 1000.3 hPa | 0 mm | 0.89 m/s, 105° | - | - |
| 1777975201 | 18.89° C | 71% | 1000.3 hPa | 0 mm | 0.89 m/s, 77° | - | - |
| 1777974302 | 18.89° C | 72% | 1000.6 hPa | 0 mm | 0.89 m/s, 94° | - | - |
| 1777973402 | 17.78° C | 75% | 1000.6 hPa | 0 mm | 0 m/s | - | - |
| 1777972503 | 17.78° C | 76% | 1000.6 hPa | 0 mm | 0 m/s | - | - |
| 1777971601 | 17.78° C | 72% | 1001 hPa | 0 mm | 0.45 m/s, 110° | - | - |
| 1777970701 | 18.89° C | 71% | 1001 hPa | 0 mm | 0.45 m/s, 93° | - | - |
| 1777969801 | 18.89° C | 76% | 1001 hPa | 0 mm | 1.34 m/s, 91° | - | - |
| 1777968901 | 17.78° C | 82% | 1001 hPa | 0 mm | 0.89 m/s, 98° | - | - |
* Rain latest hour (hover to see other rain measurements)
** Current wind speed in m/s (hover to see current wind gust speed)